Etusivu
METAR-TAF:

METAR-TAF

Lentoasemat :

Shanghai Pudongin kansainvälinen lentoasema

Shanghai-Pudong, Kiina

Leveyspiiri: 31-07N, Pituuspiiri: 121-46E, korkeus merenpinnasta: 4 m

Tämänhetkinen sää

Tämä raportti tehtiin 15 minuuttia sitten, kello 17.30 UTC
Tuuli 12 kn idästä
Lämpötila 18°C
Kosteus 94%
Ilmanpaine 1012 hPa
Näkyvyys 10 km tai enemmän
Hajonneita pilviä 600 ft:n korkeudessa

METAR: ZSPD 201730Z 08006MPS 9999 BKN006 18/17 Q1012 NOSIG

Aika: 01:45 (17:45 UTC)

Sääennuste

Tämä raportti tehtiin 2 tuntia ja 17 minuuttia sitten, kello 15.28 UTC
Ennuste voimassa 20. päivästä klo 18 UTC - 21. päivään klo 18 UTC
Tuuli 10 kn idästä/koillisesta
Näkyvyys: 6000 m
Hajonneita pilviä 600 ft:n korkeudessa
Tulossa
21. päivästä klo 02 UTC - 21. päivään klo 04 UTC
Tuuli 10 kn idästä
Hajonneita pilviä 1100 ft:n korkeudessa

TAF: ZSPD 201528Z 2018/2118 07005MPS 6000 BKN006 TX23/2106Z TN18/2021Z BECMG 2102/2104 09005MPS BKN011

Säähavainnot ja -ennusteet yli 4000 lentoasemalta (METAR- ja TAF-raportit).

Käytössä olevat sääasemat on merkitty karttaan keltaisilla ja punaisilla pisteillä.

Aseta hiiri pisteen päälle nähdäksesi sääaseman nimen.

Klikkaa sitten nähdäksesi säähavainnot ja -ennusteet.

Kartan vaihtaminen: klikkaa mustalla rastilla varustettuja vihreitä pisteitä, niin voit zoomata sisään; viivalla varustettua vihreää pistettä, niin voit zoomata ulos tai vihreitä nuolia, niin pääset viereisille kartoille.


METAR-TAF: